Aeroporto :
LOGIN :

Iscrizione | Disclaimer

   EN    FR    IT 

 










Sommario :    VFR   VFR Marginale   IFR   IFR Intensivo   IFR Molto Intensivo
Visibilità : 
Base nubi : 
>= 8 km
>= 3000ft
5 / 8 km
1000 / 3000 ft
1500m / 5 km
500 / 1000 ft
800 / 1500m
200 / 500 ft
< 800m
< 200 ft
Simboli :   Temporali  Nebbia  Neve Forte  Precipitazioni Forti  Vento > 20 kt
SIGMETs :   Varie  Temporali  Ghiacco  Turbolenza  Onda orograficha  Ceneri Vulcaniche







- Altitudine del aeroporto : 1300 ft
- Codice IATA : LIG
- Carte del aeroporto


LFBL - Limoges

ULTIMO METAR :
  • 220130Z AUTO 05007KT CAVOK 12/07 Q1010 NOSIG

METARs OBSOLETI :
  • 220100Z AUTO 05005KT CAVOK 12/07 Q1011 NOSIG
  • 220030Z AUTO 04006KT CAVOK 11/07 Q1011 NOSIG
  • 220000Z AUTO 05008KT CAVOK 11/08 Q1012 NOSIG
  • 212330Z AUTO 05008KT CAVOK 11/08 Q1012 NOSIG
  • 212300Z AUTO 05006KT CAVOK 11/09 Q1012 NOSIG

TAF TAF LFBL
Valido dal 22 a 00 ore il 23 a 00 ore UTC


212300Z 2200/2224 06006KT CAVOK
PROB30
TEMPO 2209/2213 VRB15KT SCT080TCU
ATIS : +33 5 55 48 40 37
Nessun NOTAM noto per questo aeroporto.



MetMap, La meteo Aeronautica in un colpo d'occhio ! - Copyright ORBIFLY Dicembre 2007 - Disclaimer

ORBIFLY MET'MAP TEAM :

Programmazione e sviluppo : Alexandra Zaïnal
Concezione e sviluppo : Baudouin d'Aumeries
Co-Programmazione e sviluppo : Marc-Olivier Méhu
Supporto tecnico e logistico : Manuel Goepfert
Aiuto per la traduzione : Arnaldo La Scala

Contatto : metmap@orbifly.com




FONTI E CREDITI :

   NOAA